Latest Weather Observations for Wellcamp Airport

IDQ60801

The Bureau's Brisbane Office is moving locations in November 2018. In the lead up to and during the move, some weather observations or other data on our website may be delayed or temporarily unavailable. Thank you for your patience during this transition.

Issued at 2:22 pm EST Thursday 15 November 2018 (issued every 10 minutes, with the page automatically refreshed every 10 minutes)

About weather observations | Map of weather stations | Latest weather observations for QLD | Other Formats
Station Details ID: 541150 Name: WELLCAMP AIRPORT Lat: -27.55 Lon: 151.78 Height: 436.98 m
Data from the previous 72 hours. | See also: Recent months for locations in Queensland
Date/Time
EST
Temp
°C
App
Temp
°C
Dew
Point
°C
Rel
Hum
%
Delta-T
°C
Wind Press
QNH
hPa
Press
MSL
hPa
Rain since
9am
mm
Dir  Spd
km/h
Gust
km/h
Spd
kts
Gust
kts
15/02:00pm 30.3 29.8 12.7 34 10.6 ENE 7 19 4 10 1015.7 1013.7 0.0
15/01:30pm 29.9 28.9 12.3 33 10.5 ESE 9 17 5 9 1016.2 1014.2 0.0
15/01:00pm 29.0 28.3 13.2 37 9.5 ENE 9 17 5 9 1016.6 1014.6 0.0
15/12:30pm 27.9 27.6 13.4 40 8.7 E 7 17 4 9 1017.0 1015.1 0.0
15/12:00pm 27.6 27.0 12.4 39 9.0 NNW 7 17 4 9 1017.6 1015.6 0.0
15/11:30am 27.9 27.3 12.3 38 9.2 NW 7 19 4 10 1018.0 1016.0 0.0
15/11:00am 27.0 26.4 13.4 43 8.2 NW 9 22 5 12 1018.5 1016.5 0.0
15/10:30am 28.1 27.5 13.6 41 8.8 NW 9 17 5 9 1019.0 1017.0 0.0
15/10:00am 26.5 25.8 14.3 47 7.4 NNW 11 19 6 10 1019.3 1017.4 0.0
15/09:30am 25.7 25.1 14.5 50 6.8 NE 11 22 6 12 1019.5 1017.6 0.0
15/09:00am 25.4 25.4 15.1 53 6.3 NE 9 17 5 9 1019.6 1017.7 0.0
15/08:30am 23.7 22.9 15.2 59 5.2 NE 13 20 7 11 1019.6 1017.7 0.0
15/08:00am 22.9 22.1 15.2 62 4.7 NE 13 19 7 10 1019.4 1017.5 0.0
15/07:30am 22.1 21.0 15.2 65 4.2 NE 15 20 8 11 1019.4 1017.5 0.0
15/07:00am 20.9 20.3 15.7 72 3.2 NE 13 19 7 10 1019.4 1017.5 0.0
15/06:30am 19.7 19.3 16.2 80 2.1 ENE 13 19 7 10 1019.0 1017.0 0.0
15/06:00am 19.2 20.0 15.9 81 2.0 E 6 9 3 5 1018.5 1016.5 0.0
15/05:30am 17.8 18.2 15.4 86 1.4 E 7 9 4 5 1018.3 1016.3 0.0
15/05:00am 16.3 16.5 14.8 91 0.9 SE 7 9 4 5 1018.0 1016.0 0.0
15/04:30am 16.0 16.3 14.9 93 0.6 ESE 7 11 4 6 1017.4 1015.5 0.0
15/04:00am 15.2 15.7 14.1 93 0.6 SSW 4 6 2 3 1017.1 1015.2 0.0
15/03:30am 15.9 16.4 14.1 89 1.0 E 4 6 2 3 1016.9 1014.9 0.0
15/03:00am 16.7 16.9 14.7 88 1.2 ESE 7 9 4 5 1016.7 1014.7 0.0
15/02:30am 17.1 17.4 14.6 85 1.5 E 6 9 3 5 1016.8 1014.8 0.0
15/02:00am 17.0 17.5 15.0 88 1.2 E 6 9 3 5 1016.9 1014.9 0.0
15/01:30am 17.4 17.9 15.0 86 1.4 E 6 11 3 6 1017.2 1015.3 0.0
15/01:00am 18.2 19.2 15.3 83 1.7 ENE 4 6 2 3 1017.7 1015.7 0.0
15/12:30am 18.4 18.9 15.1 81 2.0 E 6 11 3 6 1017.8 1015.8 0.0
15/12:00am 19.0 19.5 15.1 78 2.3 E 6 11 3 6 1018.0 1016.0 0.0
 
Date/Time
EST
Temp
°C
App
Temp
°C
Dew
Point
°C
Rel
Hum
%
Delta-T
°C
Wind Press
QNH
hPa
Press
MSL
hPa
Rain since
9am
mm
Dir  Spd
km/h
Gust
km/h
Spd
kts
Gust
kts
14/11:30pm 19.6 20.2 15.3 76 2.6 E 6 11 3 6 1018.2 1016.2 0.0
14/11:00pm 20.0 19.7 15.4 75 2.8 E 11 17 6 9 1018.3 1016.3 0.0
14/10:30pm 20.6 19.1 15.4 72 3.1 ENE 17 24 9 13 1018.5 1016.5 0.0
14/10:00pm 21.4 20.0 15.5 69 3.6 ENE 17 26 9 14 1018.3 1016.3 0.0
14/09:30pm 22.1 20.3 15.5 66 4.0 ENE 19 24 10 13 1018.4 1016.4 0.0
14/09:00pm 22.6 21.8 15.2 63 4.5 ENE 13 20 7 11 1018.3 1016.3 0.0
14/08:30pm 22.9 20.9 15.0 61 4.8 ENE 19 28 10 15 1017.8 1015.8 0.0
14/08:00pm 23.7 20.4 14.1 55 5.7 E 24 35 13 19 1017.3 1015.4 0.0
14/07:30pm 24.3 20.2 12.6 48 6.9 E 26 33 14 18 1016.8 1014.8 0.0
14/07:00pm 25.3 20.8 8.7 35 9.1 E 22 30 12 16 1016.7 1014.7 0.0
14/06:30pm 25.4 21.9 8.8 35 9.2 E 17 22 9 12 1016.7 1014.7 0.0
14/06:00pm 25.8 23.1 8.8 34 9.4 ENE 13 17 7 9 1016.5 1014.5 0.0
14/05:30pm 26.7 24.0 9.1 33 9.8 ENE 13 19 7 10 1016.4 1014.4 0.0
14/05:00pm 26.9 23.9 9.3 33 9.9 ENE 15 20 8 11 1016.2 1014.2 0.0
14/04:30pm 27.5 25.0 9.8 33 10.0 E 13 30 7 16 1016.0 1014.0 0.0
14/04:00pm 27.1 24.5 9.5 33 9.9 NE 13 19 7 10 1016.1 1014.1 0.0
14/03:30pm 27.3 24.4 9.6 33 10.0 SE 15 28 8 15 1016.2 1014.2 0.0
14/03:00pm 27.9 26.7 9.7 32 10.3 E 6 9 3 5 1016.2 1014.2 0.0
14/02:30pm 28.1 26.4 9.9 32 10.4 E 9 19 5 10 1016.3 1014.3 0.0
14/02:00pm 27.7 26.5 10.4 34 9.9 NNE 7 15 4 8 1016.5 1014.5 0.0
14/01:30pm 27.2 25.0 10.8 36 9.4 E 13 20 7 11 1016.8 1014.8 0.0
14/01:00pm 26.6 25.4 10.3 36 9.3 N 7 19 4 10 1017.1 1015.2 0.0
14/12:30pm 27.3 25.8 10.5 35 9.6 E 9 17 5 9 1017.3 1015.4 0.0
14/12:00pm 27.1 24.8 11.6 38 9.0 NE 15 28 8 15 1017.8 1015.8 0.0
14/11:30am 26.3 24.7 11.6 40 8.5 NNE 11 17 6 9 1018.3 1016.3 0.0
14/11:00am 25.1 23.1 12.7 46 7.3 ENE 15 22 8 12 1018.6 1016.6 0.0
14/10:30am 25.4 22.6 12.6 45 7.5 ENE 19 32 10 17 1018.5 1016.5 0.0
14/10:00am 25.3 22.6 12.9 46 7.3 ENE 19 30 10 16 1018.7 1016.7 0.0
14/09:30am 24.4 20.9 13.3 50 6.6 ENE 24 32 13 17 1018.7 1016.7 0.0
14/09:00am 22.9 20.3 13.1 54 5.7 ENE 19 30 10 16 1019.0 1017.0 0.0
14/08:30am 22.3 20.0 14.2 60 4.8 ENE 19 32 10 17 1019.1 1017.2 0.0
14/08:00am 21.1 18.7 14.5 66 3.9 E 20 32 11 17 1019.1 1017.2 0.0
14/07:30am 20.8 18.6 14.5 67 3.8 ENE 19 26 10 14 1018.9 1016.9 0.0
14/07:00am 19.0 16.8 14.3 74 2.8 ENE 19 28 10 15 1018.7 1016.7 0.0
14/06:30am 18.2 16.2 13.9 76 2.5 E 17 26 9 14 1018.5 1016.5 0.0
14/06:00am 17.7 17.2 13.8 78 2.3 E 9 15 5 8 1018.2 1016.2 0.0
14/05:30am 16.0 16.3 13.3 84 1.5 E 4 13 2 7 1017.8 1015.8 0.0
14/05:12am 15.7 15.4 13.2 85 1.4 E 7 15 4 8 1017.4 1015.5 0.0
14/05:00am 15.5 15.3 13.0 85 1.4 E 6 13 3 7 1017.3 1015.4 0.0
14/04:30am 15.6 15.2 12.9 84 1.5 E 7 13 4 7 1017.1 1015.2 0.0
14/04:00am 15.7 15.8 12.6 82 1.7 ESE 4 7 2 4 1017.0 1015.1 0.0
14/03:30am 15.5 16.0 12.8 84 1.5 WNW 2 6 1 3 1016.7 1014.7 0.0
14/03:22am 15.2 15.2 12.3 83 1.6 W 4 6 2 3 1016.6 1014.6 0.0
14/03:00am 15.4 14.8 12.3 82 1.7 NW 7 15 4 8 1016.6 1014.6 0.0
14/02:30am 16.3 13.0 12.7 79 2.0 E 22 33 12 18 1016.2 1014.2 0.0
14/02:00am 16.6 12.5 12.8 78 2.2 E 26 37 14 20 1016.5 1014.5 0.0
14/01:30am 16.7 11.5 12.8 78 2.2 E 32 43 17 23 1016.4 1014.4 0.0
14/01:00am 16.8 11.6 12.9 78 2.2 E 32 39 17 21 1016.7 1014.7 0.0
14/12:30am 17.1 11.8 13.0 77 2.3 E 33 43 18 23 1017.1 1015.2 0.0
14/12:00am 17.2 11.5 13.1 77 2.3 E 35 44 19 24 1017.4 1015.5 0.0
 
Date/Time
EST
Temp
°C
App
Temp
°C
Dew
Point
°C
Rel
Hum
%
Delta-T
°C
Wind Press
QNH
hPa
Press
MSL
hPa
Rain since
9am
mm
Dir  Spd
km/h
Gust
km/h
Spd
kts
Gust
kts
13/11:30pm 17.4 12.1 13.1 76 2.5 E 33 41 18 22 1018.1 1016.1 0.0
13/11:00pm 17.6 12.5 13.1 75 2.6 E 32 46 17 25 1018.1 1016.1 0.0
13/10:30pm 18.0 12.6 12.2 69 3.3 E 32 44 17 24 1018.3 1016.3 0.0
13/10:00pm 18.2 12.9 12.6 70 3.2 E 32 43 17 23 1018.6 1016.6 0.0
13/09:30pm 18.7 13.0 11.8 64 3.9 E 33 43 18 23 1018.6 1016.6 0.0
13/09:00pm 19.2 14.1 10.7 58 4.7 E 28 43 15 23 1018.6 1016.6 0.0
13/08:30pm 19.6 16.2 11.1 58 4.7 E 20 30 11 16 1018.6 1016.6 0.0
13/08:00pm 20.1 17.4 11.8 59 4.7 ENE 17 26 9 14 1018.5 1016.5 0.0
13/07:30pm 20.7 18.2 12.4 59 4.8 ENE 17 28 9 15 1018.2 1016.2 0.0
13/07:00pm 21.5 17.0 12.6 57 5.1 ENE 28 35 15 19 1017.4 1015.5 0.0
13/06:30pm 22.3 18.0 12.0 52 5.9 E 26 32 14 17 1017.2 1015.3 0.0
13/06:00pm 23.3 18.9 11.7 48 6.7 E 26 35 14 19 1016.7 1014.7 0.0
13/05:30pm 24.1 19.2 11.4 45 7.3 E 28 37 15 20 1016.4 1014.4 0.0
13/05:00pm 25.3 20.8 11.5 42 8.0 E 26 35 14 19 1016.1 1014.1 0.0
13/04:30pm 26.0 21.0 11.0 39 8.6 E 28 33 15 18 1015.7 1013.7 0.0
13/04:00pm 26.7 23.0 11.6 39 8.8 ESE 22 32 12 17 1016.1 1014.1 0.0
13/03:30pm 26.3 22.7 10.5 37 9.0 E 20 30 11 16 1016.1 1014.1 0.0
13/03:00pm 26.1 21.7 10.3 37 9.0 ESE 24 39 13 21 1016.5 1014.5 0.0
13/02:30pm 26.4 22.9 10.9 38 8.9 E 20 32 11 17 1016.5 1014.5 0.0
13/02:00pm 27.4 23.8 10.6 35 9.6 ESE 20 33 11 18 1016.6 1014.6 0.0
13/01:30pm 26.2 22.6 10.4 37 9.0 ENE 20 37 11 20 1016.8 1014.8 0.0
13/01:00pm 26.0 22.3 10.2 37 9.0 ESE 20 35 11 19 1017.6 1015.6 0.0
13/12:30pm 26.0 21.9 10.2 37 9.0 E 22 37 12 20 1017.9 1015.9 0.0
13/12:00pm 25.0 21.2 11.2 42 7.9 E 22 35 12 19 1018.1 1016.1 0.0
13/11:30am 24.8 21.8 12.4 46 7.3 E 20 32 11 17 1018.5 1016.5 0.0
13/11:00am 24.7 21.1 13.0 48 6.9 E 24 37 13 20 1019.0 1017.0 0.0
13/10:30am 24.2 19.1 11.9 46 7.1 ENE 30 43 16 23 1019.2 1017.3 0.0
13/10:00am 23.3 18.2 12.0 49 6.5 E 30 54 16 29 1019.5 1017.6 0.0
13/09:58am 23.2 18.2 12.2 50 6.4 E 30 54 16 29 1019.6 1017.7 0.0
13/09:30am 22.7 18.0 12.0 50 6.2 E 28 43 15 23 1019.7 1017.8 0.0
13/09:00am 22.2 17.2 12.2 53 5.8 E 30 43 16 23 1019.7 1017.8 0.0
13/08:30am 22.2 17.9 11.9 52 5.9 E 26 37 14 20 1019.8 1017.9 0.0
13/08:00am 20.7 15.9 11.6 56 5.1 E 28 39 15 21 1019.8 1017.9 0.0
13/07:30am 20.1 15.7 11.6 58 4.8 ESE 26 33 14 18 1020.1 1018.1 0.0
13/07:00am 19.4 15.8 11.9 62 4.2 ESE 22 32 12 17 1019.7 1017.8 0.0
13/06:30am 18.2 15.1 11.7 66 3.6 ESE 19 26 10 14 1019.6 1017.7 0.0
13/06:00am 15.6 14.8 11.0 74 2.5 SSE 6 9 3 5 1019.6 1017.7 0.0
13/05:30am 13.3 11.7 10.1 81 1.7 S 9 11 5 6 1019.6 1017.7 0.0
13/05:00am 12.8 11.5 10.0 83 1.5 S 7 9 4 5 1019.3 1017.4 0.0
13/04:30am 12.2 10.4 9.6 84 1.4 SSE 9 11 5 6 1018.9 1016.9 0.0
13/04:00am 12.8 11.0 9.6 81 1.7 S 9 11 5 6 1018.7 1016.7 0.0
13/03:30am 13.5 11.4 9.7 78 2.0 SSE 11 17 6 9 1018.6 1016.6 0.0
13/03:00am 14.2 12.2 10.0 76 2.2 SE 11 15 6 8 1018.8 1016.8 0.0
13/02:30am 14.5 12.8 9.9 74 2.4 SE 9 15 5 8 1018.8 1016.8 0.0
13/02:00am 14.7 12.6 9.9 73 2.5 ESE 11 17 6 9 1018.7 1016.7 0.0
13/01:30am 15.4 12.6 10.0 70 2.9 ESE 15 26 8 14 1018.7 1016.7 0.0
13/01:00am 15.5 12.6 9.6 68 3.1 SE 15 20 8 11 1018.9 1016.9 0.0
13/12:30am 15.6 12.4 9.9 69 3.0 SE 17 22 9 12 1019.3 1017.4 0.0
13/12:00am 16.2 13.2 10.5 69 3.1 ESE 17 22 9 12 1019.8 1017.9 0.0
 
Date/Time
EST
Temp
°C
App
Temp
°C
Dew
Point
°C
Rel
Hum
%
Delta-T
°C
Wind Press
QNH
hPa
Press
MSL
hPa
Rain since
9am
mm
Dir  Spd
km/h
Gust
km/h
Spd
kts
Gust
kts
12/11:30pm 16.4 14.1 11.6 73 2.7 ESE 15 24 8 13 1020.2 1018.2 0.0
12/11:00pm 16.7 15.2 11.8 73 2.7 ESE 11 19 6 10 1020.8 1018.8 0.0
12/10:30pm 17.5 14.5 12.0 70 3.1 E 19 26 10 14 1020.9 1018.9 0.0
12/10:00pm 17.9 14.6 11.7 67 3.5 ESE 20 28 11 15 1020.7 1018.7 0.0
12/09:30pm 18.4 14.0 11.7 65 3.8 E 26 33 14 18 1020.5 1018.5 0.0
12/09:00pm 18.9 14.7 11.2 61 4.3 E 24 33 13 18 1020.5 1018.5 0.0
12/08:30pm 19.5 16.0 10.8 57 4.8 E 20 30 11 16 1020.4 1018.4 0.0
12/08:00pm 20.2 16.5 10.3 53 5.5 E 20 30 11 16 1019.7 1017.8 0.0
12/07:30pm 20.9 16.3 9.8 49 6.1 E 24 33 13 18 1019.1 1017.2 0.0
12/07:00pm 21.8 16.5 9.7 46 6.6 E 28 41 15 22 1018.8 1016.8 0.0
12/06:30pm 22.8 17.1 8.5 40 7.7 E 28 44 15 24 1018.3 1016.3 0.0
12/06:00pm 24.0 18.0 7.2 34 8.9 E 28 41 15 22 1017.9 1015.9 0.0
12/05:30pm 24.8 18.3 6.5 31 9.7 E 30 41 16 22 1017.8 1015.8 0.0
12/05:00pm 25.5 19.0 6.7 30 10.0 E 30 39 16 21 1017.6 1015.6 0.0
12/04:30pm 26.1 19.3 6.7 29 10.4 ENE 32 44 17 24 1017.2 1015.3 0.0
12/04:00pm 26.9 20.9 6.9 28 10.8 E 28 44 15 24 1017.2 1015.3 0.0
12/03:30pm 27.3 21.3 7.2 28 10.9 E 28 48 15 26 1017.1 1015.2 0.0
12/03:24pm 27.0 21.0 6.9 28 10.8 E 28 48 15 26 1017.0 1015.1 0.0
12/03:00pm 26.9 20.5 6.9 28 10.8 E 30 39 16 21 1017.0 1015.1 0.0
12/02:30pm 27.0 21.7 6.9 28 10.8 E 24 41 13 22 1017.2 1015.3 0.0

Other Formats:

Comma delimited format used in spreadsheet applications
http://www.bom.gov.au/fwo/IDQ60801/IDQ60801.99435.axf

JavaScript Object Notation format (JSON) in row-major order
http://www.bom.gov.au/fwo/IDQ60801/IDQ60801.99435.json